Time,TemperatureF,DewpointF,PressureIn,WindDirection,WindDirectionDegrees,WindSpeedMPH,WindSpeedGustMPH,Humidity,HourlyPrecipIn,Conditions,Clouds,dailyrainin,SoftwareType,DateUTC
2013-09-18 00:01:00,70.9,63.7,30.13,NNE,21,3.1,3.1,78,0.00,,,0.00,VWS V13.01,2013-09-18 05:01:00,
2013-09-18 00:06:00,70.9,63.4,30.13,NNE,32,0.0,0.0,77,0.00,,,0.00,VWS V13.01,2013-09-18 05:06:00,
2013-09-18 00:11:00,70.9,63.4,30.13,NNE,32,0.0,0.0,77,0.00,,,0.00,VWS V13.01,2013-09-18 05:11:00,
2013-09-18 00:16:00,71.1,63.2,30.13,NNE,32,0.0,0.0,76,0.00,,,0.00,VWS V13.01,2013-09-18 05:16:00,
2013-09-18 00:21:00,70.9,63.0,30.13,NNE,19,0.0,0.0,76,0.00,,,0.00,VWS V13.01,2013-09-18 05:21:00,
2013-09-18 00:26:00,71.1,62.8,30.13,NNE,12,0.0,2.2,75,0.00,,,0.00,VWS V13.01,2013-09-18 05:26:00,
2013-09-18 00:31:00,71.1,62.8,30.13,NNE,12,0.0,0.0,75,0.00,,,0.00,VWS V13.01,2013-09-18 05:31:00,
2013-09-18 00:36:00,71.1,62.8,30.13,NNE,12,0.0,0.0,75,0.00,,,0.00,VWS V13.01,2013-09-18 05:36:00,
2013-09-18 00:41:00,70.9,63.0,30.13,NNE,12,0.0,0.0,76,0.00,,,0.00,VWS V13.01,2013-09-18 05:41:00,
2013-09-18 00:46:00,70.7,62.8,30.13,NNE,12,0.0,0.0,76,0.00,,,0.00,VWS V13.01,2013-09-18 05:46:00,
2013-09-18 00:51:00,70.6,62.6,30.13,NNE,12,0.0,0.0,76,0.00,,,0.00,VWS V13.01,2013-09-18 05:51:00,
2013-09-18 00:56:00,70.4,62.5,30.13,NNE,12,0.0,0.0,76,0.00,,,0.00,VWS V13.01,2013-09-18 05:56:00,
2013-09-18 01:01:00,70.4,62.8,30.13,NNE,12,0.0,0.0,77,0.00,,,0.00,VWS V13.01,2013-09-18 06:01:00,
2013-09-18 01:06:00,70.2,62.7,30.13,NNE,12,0.0,0.0,77,0.00,,,0.00,VWS V13.01,2013-09-18 06:06:00,
2013-09-18 01:11:00,70.2,62.7,30.13,NNE,12,0.0,0.0,77,0.00,,,0.00,VWS V13.01,2013-09-18 06:11:00,
2013-09-18 01:16:00,70.2,63.0,30.13,NNE,12,0.0,0.0,78,0.00,,,0.00,VWS V13.01,2013-09-18 06:16:00,
2013-09-18 01:21:00,70.2,63.0,30.13,NNE,14,0.0,0.0,78,0.00,,,0.00,VWS V13.01,2013-09-18 06:21:00,
2013-09-18 01:26:00,70.4,62.8,30.13,NNE,14,0.0,0.0,77,0.00,,,0.00,VWS V13.01,2013-09-18 06:26:00,
2013-09-18 01:31:00,70.4,62.8,30.13,NNE,14,0.0,0.0,77,0.00,,,0.00,VWS V13.01,2013-09-18 06:31:00,
2013-09-18 01:36:00,70.4,63.2,30.13,NNE,14,0.0,0.0,78,0.00,,,0.00,VWS V13.01,2013-09-18 06:36:00,
2013-09-18 01:41:00,70.6,63.0,30.13,NNE,14,0.0,0.0,77,0.00,,,0.00,VWS V13.01,2013-09-18 06:41:00,
2013-09-18 01:46:00,70.6,63.0,30.13,NNE,14,0.0,0.0,77,0.00,,,0.00,VWS V13.01,2013-09-18 06:46:00,
2013-09-18 01:51:00,70.6,62.6,30.13,North,6,0.0,0.0,76,0.00,,,0.00,VWS V13.01,2013-09-18 06:51:00,
2013-09-18 01:56:00,70.7,62.8,30.13,NNE,12,0.0,0.0,76,0.00,,,0.00,VWS V13.01,2013-09-18 06:56:00,
2013-09-18 02:01:00,70.6,62.6,30.13,NE,53,0.0,0.0,76,0.00,,,0.00,VWS V13.01,2013-09-18 07:01:00,
2013-09-18 02:06:00,70.2,62.7,30.13,NE,53,0.0,0.0,77,0.00,,,0.00,VWS V13.01,2013-09-18 07:06:00,
2013-09-18 02:11:00,70.0,62.8,30.13,NE,53,0.0,0.0,78,0.00,,,0.00,VWS V13.01,2013-09-18 07:11:00,
2013-09-18 02:16:00,70.0,62.8,30.13,NE,52,0.0,0.0,78,0.00,,,0.00,VWS V13.01,2013-09-18 07:16:00,
2013-09-18 02:21:00,70.0,62.8,30.13,NE,52,0.0,0.0,78,0.00,,,0.00,VWS V13.01,2013-09-18 07:21:00,
2013-09-18 02:26:00,70.0,63.2,30.13,NNE,33,2.2,2.2,79,0.00,,,0.00,VWS V13.01,2013-09-18 07:26:00,
2013-09-18 02:31:00,70.0,63.2,30.13,NNE,33,0.0,0.0,79,0.00,,,0.00,VWS V13.01,2013-09-18 07:31:00,
2013-09-18 02:36:00,70.2,63.4,30.13,NNE,33,0.0,0.0,79,0.00,,,0.00,VWS V13.01,2013-09-18 07:36:00,
2013-09-18 02:41:00,70.2,63.0,30.13,NNE,33,0.0,0.0,78,0.00,,,0.00,VWS V13.01,2013-09-18 07:41:00,
2013-09-18 02:46:00,70.4,63.2,30.13,NNE,33,0.0,0.0,78,0.00,,,0.00,VWS V13.01,2013-09-18 07:46:00,
2013-09-18 02:51:00,70.4,62.5,30.13,NNE,21,0.0,0.0,76,0.00,,,0.00,VWS V13.01,2013-09-18 07:51:00,
2013-09-18 02:56:00,70.7,62.8,30.13,NNE,12,0.0,0.0,76,0.00,,,0.00,VWS V13.01,2013-09-18 07:56:00,
2013-09-18 03:01:00,70.7,63.2,30.10,NNE,30,3.6,3.6,77,0.00,,,0.00,VWS V13.01,2013-09-18 08:01:00,
2013-09-18 03:06:00,70.6,63.0,30.10,NNE,30,2.2,2.7,77,0.00,,,0.00,VWS V13.01,2013-09-18 08:06:00,
2013-09-18 03:11:00,70.4,63.2,30.10,NNE,31,0.0,0.0,78,0.00,,,0.00,VWS V13.01,2013-09-18 08:11:00,
2013-09-18 03:16:00,70.4,62.8,30.13,North,7,0.0,0.0,77,0.00,,,0.00,VWS V13.01,2013-09-18 08:16:00,
2013-09-18 03:21:00,70.4,62.8,30.13,North,7,0.0,0.0,77,0.00,,,0.00,VWS V13.01,2013-09-18 08:21:00,
2013-09-18 03:26:00,70.6,62.6,30.13,North,7,0.0,0.0,76,0.00,,,0.00,VWS V13.01,2013-09-18 08:26:00,
2013-09-18 03:31:00,70.7,62.4,30.13,North,7,0.0,0.0,75,0.00,,,0.00,VWS V13.01,2013-09-18 08:31:00,
2013-09-18 03:36:00,71.1,62.4,30.13,North,7,0.0,0.0,74,0.00,,,0.00,VWS V13.01,2013-09-18 08:36:00,
2013-09-18 03:41:00,71.5,62.4,30.13,NNE,21,0.0,0.0,73,0.00,,,0.00,VWS V13.01,2013-09-18 08:41:00,
2013-09-18 03:46:00,71.5,62.4,30.10,NNE,26,2.7,3.1,73,0.00,,,0.00,VWS V13.01,2013-09-18 08:46:00,
2013-09-18 03:51:00,71.5,62.4,30.10,NE,38,0.0,0.0,73,0.00,,,0.00,VWS V13.01,2013-09-18 08:51:00,
2013-09-18 03:56:00,71.3,62.2,30.10,NE,38,0.0,0.0,73,0.00,,,0.00,VWS V13.01,2013-09-18 08:56:00,
2013-09-18 04:01:00,71.3,62.2,30.10,NE,38,0.0,0.0,73,0.00,,,0.00,VWS V13.01,2013-09-18 09:01:00,
2013-09-18 04:06:00,71.1,62.0,30.10,NE,38,0.0,0.0,73,0.00,,,0.00,VWS V13.01,2013-09-18 09:06:00,
2013-09-18 04:11:00,71.1,62.4,30.10,NE,38,0.0,0.0,74,0.00,,,0.00,VWS V13.01,2013-09-18 09:11:00,
2013-09-18 04:16:00,70.9,62.6,30.10,NE,38,0.0,0.0,75,0.00,,,0.00,VWS V13.01,2013-09-18 09:16:00,
2013-09-18 04:21:00,70.7,62.8,30.10,NE,38,0.0,0.0,76,0.00,,,0.00,VWS V13.01,2013-09-18 09:21:00,
2013-09-18 04:26:00,70.7,63.2,30.10,NE,34,0.0,0.0,77,0.00,,,0.00,VWS V13.01,2013-09-18 09:26:00,
2013-09-18 04:31:00,70.7,63.2,30.10,NE,34,0.0,0.0,77,0.00,,,0.00,VWS V13.01,2013-09-18 09:31:00,
2013-09-18 04:36:00,70.7,63.2,30.10,NE,34,0.0,0.0,77,0.00,,,0.00,VWS V13.01,2013-09-18 09:36:00,
2013-09-18 04:41:00,70.7,63.2,30.10,NE,34,0.0,0.0,77,0.00,,,0.00,VWS V13.01,2013-09-18 09:41:00,
2013-09-18 04:46:00,70.7,63.2,30.10,NE,34,0.0,0.0,77,0.00,,,0.00,VWS V13.01,2013-09-18 09:46:00,
2013-09-18 04:51:00,70.7,63.2,30.10,NE,34,0.0,0.0,77,0.00,,,0.00,VWS V13.01,2013-09-18 09:51:00,
2013-09-18 04:56:00,70.7,63.2,30.10,NE,34,0.0,0.0,77,0.00,,,0.00,VWS V13.01,2013-09-18 09:56:00,
2013-09-18 05:01:00,70.7,62.8,30.10,NE,34,0.0,0.0,76,0.00,,,0.00,VWS V13.01,2013-09-18 10:01:00,
2013-09-18 05:06:00,70.7,62.8,30.10,NE,34,0.0,0.0,76,0.00,,,0.00,VWS V13.01,2013-09-18 10:06:00,
2013-09-18 05:11:00,70.7,63.2,30.10,NE,34,0.0,0.0,77,0.00,,,0.00,VWS V13.01,2013-09-18 10:11:00,
2013-09-18 05:16:00,70.7,62.8,30.10,NE,47,0.0,0.0,76,0.00,,,0.00,VWS V13.01,2013-09-18 10:16:00,
2013-09-18 05:21:00,70.9,63.0,30.10,NE,47,0.0,0.0,76,0.00,,,0.00,VWS V13.01,2013-09-18 10:21:00,
2013-09-18 05:26:00,70.9,63.0,30.10,NE,47,0.0,0.0,76,0.00,,,0.00,VWS V13.01,2013-09-18 10:26:00,
2013-09-18 05:31:00,70.9,63.0,30.10,NE,47,0.0,0.0,76,0.00,,,0.00,VWS V13.01,2013-09-18 10:31:00,
2013-09-18 05:36:00,70.9,63.0,30.10,NE,47,0.0,0.0,76,0.00,,,0.00,VWS V13.01,2013-09-18 10:36:00,
2013-09-18 05:41:00,70.9,63.4,30.10,NE,47,0.0,0.0,77,0.00,,,0.00,VWS V13.01,2013-09-18 10:41:00,
2013-09-18 05:46:00,70.9,63.4,30.10,NE,47,0.0,0.0,77,0.00,,,0.00,VWS V13.01,2013-09-18 10:46:00,
2013-09-18 05:51:00,70.7,63.2,30.10,NE,47,0.0,0.0,77,0.00,,,0.00,VWS V13.01,2013-09-18 10:51:00,
2013-09-18 05:56:00,70.7,63.2,30.10,NE,47,0.0,0.0,77,0.00,,,0.00,VWS V13.01,2013-09-18 10:56:00,
2013-09-18 06:01:00,70.7,63.2,30.10,NE,47,0.0,0.0,77,0.00,,,0.00,VWS V13.01,2013-09-18 11:01:00,
2013-09-18 06:06:00,70.9,63.4,30.10,NE,47,0.0,0.0,77,0.00,,,0.00,VWS V13.01,2013-09-18 11:06:00,
2013-09-18 06:11:00,70.9,63.7,30.10,NE,47,0.0,0.0,78,0.00,,,0.00,VWS V13.01,2013-09-18 11:11:00,
2013-09-18 06:16:00,70.9,63.7,30.10,NE,47,0.0,0.0,78,0.00,,,0.00,VWS V13.01,2013-09-18 11:16:00,
2013-09-18 06:21:00,70.9,63.7,30.10,NE,47,0.0,0.0,78,0.00,,,0.00,VWS V13.01,2013-09-18 11:21:00,
2013-09-18 06:26:00,70.9,63.7,30.10,NE,47,0.0,0.0,78,0.00,,,0.00,VWS V13.01,2013-09-18 11:26:00,
2013-09-18 06:31:00,70.6,63.7,30.10,NE,48,0.0,0.0,79,0.00,,,0.00,VWS V13.01,2013-09-18 11:31:00,
2013-09-18 06:36:00,70.2,64.1,30.10,NE,48,0.0,0.0,81,0.00,,,0.00,VWS V13.01,2013-09-18 11:36:00,
2013-09-18 06:41:00,70.2,64.1,30.10,NE,48,0.0,0.0,81,0.00,,,0.00,VWS V13.01,2013-09-18 11:41:00,
2013-09-18 06:46:00,70.4,64.6,30.10,NNE,30,2.7,4.0,82,0.00,,,0.00,VWS V13.01,2013-09-18 11:46:00,
2013-09-18 06:51:00,70.6,64.1,30.10,NNW,331,0.0,2.7,80,0.00,,,0.00,VWS V13.01,2013-09-18 11:51:00,
2013-09-18 06:56:00,70.9,63.7,30.10,NNE,18,3.1,3.1,78,0.00,,,0.00,VWS V13.01,2013-09-18 11:56:00,
2013-09-18 07:01:00,71.5,63.9,30.10,NNE,20,0.0,0.0,77,0.00,,,0.00,VWS V13.01,2013-09-18 12:01:00,
2013-09-18 07:06:00,71.5,63.9,30.10,NNE,20,0.0,0.0,77,0.00,,,0.00,VWS V13.01,2013-09-18 12:06:00,
2013-09-18 07:11:00,71.5,63.9,30.10,NNE,20,0.0,0.0,77,0.00,,,0.00,VWS V13.01,2013-09-18 12:11:00,
2013-09-18 07:16:00,71.5,64.6,30.10,NNE,20,0.0,0.0,79,0.00,,,0.00,VWS V13.01,2013-09-18 12:16:00,
2013-09-18 07:21:00,71.3,64.1,30.10,NNE,20,0.0,0.0,78,0.00,,,0.00,VWS V13.01,2013-09-18 12:21:00,
2013-09-18 07:26:00,71.3,64.1,30.10,NNE,20,0.0,0.0,78,0.00,,,0.00,VWS V13.01,2013-09-18 12:26:00,
2013-09-18 07:31:00,71.1,64.3,30.10,NNE,20,0.0,0.0,79,0.00,,,0.00,VWS V13.01,2013-09-18 12:31:00,
2013-09-18 07:36:00,71.1,64.6,30.10,NNE,20,0.0,0.0,80,0.00,,,0.00,VWS V13.01,2013-09-18 12:36:00,
2013-09-18 07:41:00,70.9,64.4,30.10,NNE,20,0.0,0.0,80,0.00,,,0.00,VWS V13.01,2013-09-18 12:41:00,
2013-09-18 07:46:00,70.9,64.8,30.10,NNE,20,0.0,0.0,81,0.00,,,0.00,VWS V13.01,2013-09-18 12:46:00,
2013-09-18 07:51:00,71.1,64.6,30.10,NNE,20,0.0,0.0,80,0.00,,,0.00,VWS V13.01,2013-09-18 12:51:00,
2013-09-18 07:56:00,71.1,64.6,30.10,NNE,20,0.0,0.0,80,0.00,,,0.00,VWS V13.01,2013-09-18 12:56:00,
2013-09-18 08:01:00,71.3,64.1,30.13,NNE,20,0.0,0.0,78,0.00,,,0.00,VWS V13.01,2013-09-18 13:01:00,
2013-09-18 08:06:00,71.6,64.4,30.13,NNE,20,0.0,0.0,78,0.00,,,0.00,VWS V13.01,2013-09-18 13:06:00,
2013-09-18 08:11:00,72.0,64.8,30.13,NNE,20,0.0,0.0,78,0.00,,,0.00,VWS V13.01,2013-09-18 13:11:00,
2013-09-18 08:16:00,72.2,64.9,30.13,NNE,20,0.0,0.0,78,0.00,,,0.00,VWS V13.01,2013-09-18 13:16:00,
2013-09-18 08:21:00,72.4,65.5,30.13,NNE,20,0.0,0.0,79,0.00,,,0.00,VWS V13.01,2013-09-18 13:21:00,
2013-09-18 08:26:00,72.5,65.7,30.13,NNE,20,0.0,0.0,79,0.00,,,0.00,VWS V13.01,2013-09-18 13:26:00,
2013-09-18 08:31:00,72.7,66.2,30.13,NNE,20,0.0,0.0,80,0.00,,,0.00,VWS V13.01,2013-09-18 13:31:00,
2013-09-18 08:36:00,72.9,65.7,30.13,NNE,20,0.0,0.0,78,0.00,,,0.00,VWS V13.01,2013-09-18 13:36:00,
2013-09-18 08:41:00,73.3,66.0,30.13,NNE,20,0.0,0.0,78,0.00,,,0.00,VWS V13.01,2013-09-18 13:41:00,
2013-09-18 08:46:00,73.6,64.8,30.13,NE,54,2.7,2.7,74,0.00,,,0.00,VWS V13.01,2013-09-18 13:46:00,
2013-09-18 08:51:00,74.2,64.6,30.13,North,357,3.1,3.1,72,0.00,,,0.00,VWS V13.01,2013-09-18 13:51:00,
2013-09-18 08:56:00,74.9,64.0,30.13,NE,34,3.1,5.4,69,0.00,,,0.00,VWS V13.01,2013-09-18 13:56:00,
2013-09-18 09:01:00,76.0,65.1,30.13,NNE,26,2.2,3.6,69,0.00,,,0.00,VWS V13.01,2013-09-18 14:01:00,
2013-09-18 09:06:00,76.5,63.9,30.13,North,2,3.6,5.4,65,0.00,,,0.00,VWS V13.01,2013-09-18 14:06:00,
2013-09-18 09:11:00,76.7,64.0,30.13,NE,56,5.8,5.8,65,0.00,,,0.00,VWS V13.01,2013-09-18 14:11:00,
2013-09-18 09:16:00,77.0,64.8,30.13,ESE,109,2.7,2.7,66,0.00,,,0.00,VWS V13.01,2013-09-18 14:16:00,
2013-09-18 09:21:00,77.2,65.0,30.13,ENE,67,2.2,3.6,66,0.00,,,0.00,VWS V13.01,2013-09-18 14:21:00,
2013-09-18 09:26:00,77.4,64.3,30.13,ENE,74,0.0,4.0,64,0.00,,,0.00,VWS V13.01,2013-09-18 14:26:00,
2013-09-18 09:31:00,77.4,64.3,30.13,ESE,123,2.7,2.7,64,0.00,,,0.00,VWS V13.01,2013-09-18 14:31:00,
2013-09-18 09:36:00,77.4,64.3,30.13,ENE,64,2.2,2.2,64,0.00,,,0.00,VWS V13.01,2013-09-18 14:36:00,
2013-09-18 09:41:00,77.8,64.6,30.13,NE,41,2.7,2.7,64,0.00,,,0.00,VWS V13.01,2013-09-18 14:41:00,
2013-09-18 09:46:00,78.5,64.8,30.13,ENE,62,2.7,4.0,63,0.00,,,0.00,VWS V13.01,2013-09-18 14:46:00,
2013-09-18 09:51:00,79.9,65.3,30.13,NNW,348,5.4,5.4,61,0.00,,,0.00,VWS V13.01,2013-09-18 14:51:00,
2013-09-18 09:56:00,80.1,65.4,30.13,North,349,0.0,0.0,61,0.00,,,0.00,VWS V13.01,2013-09-18 14:56:00,
2013-09-18 10:01:00,80.6,65.5,30.13,NE,39,3.6,4.9,60,0.00,,,0.00,VWS V13.01,2013-09-18 15:01:00,
2013-09-18 10:06:00,81.2,66.0,30.13,NNE,25,3.1,6.3,60,0.00,,,0.00,VWS V13.01,2013-09-18 15:06:00,
2013-09-18 10:11:00,81.4,66.2,30.13,NNE,26,4.0,4.9,60,0.00,,,0.00,VWS V13.01,2013-09-18 15:11:00,
2013-09-18 10:16:00,81.9,66.2,30.16,NE,38,2.7,2.7,59,0.00,,,0.00,VWS V13.01,2013-09-18 15:16:00,
2013-09-18 10:21:00,82.8,66.5,30.16,ESE,118,2.7,4.9,58,0.00,,,0.00,VWS V13.01,2013-09-18 15:21:00,
2013-09-18 10:26:00,83.0,66.2,30.16,NE,36,4.9,5.4,57,0.00,,,0.00,VWS V13.01,2013-09-18 15:26:00,
2013-09-18 10:31:00,82.8,66.5,30.13,ENE,71,0.0,2.2,58,0.00,,,0.00,VWS V13.01,2013-09-18 15:31:00,
2013-09-18 10:36:00,83.5,66.7,30.13,NNE,27,2.7,3.6,57,0.00,,,0.00,VWS V13.01,2013-09-18 15:36:00,
2013-09-18 10:41:00,84.2,67.4,30.13,NNW,343,2.7,3.6,57,0.00,,,0.00,VWS V13.01,2013-09-18 15:41:00,
2013-09-18 10:46:00,84.6,66.1,30.13,NE,56,5.4,6.7,54,0.00,,,0.00,VWS V13.01,2013-09-18 15:46:00,
2013-09-18 10:51:00,84.2,66.8,30.13,ESE,121,3.1,4.0,56,0.00,,,0.00,VWS V13.01,2013-09-18 15:51:00,
2013-09-18 10:56:00,84.8,66.8,30.13,SE,128,5.4,5.4,55,0.00,,,0.00,VWS V13.01,2013-09-18 15:56:00,
2013-09-18 11:01:00,84.6,67.2,30.13,ESE,121,2.7,3.6,56,0.00,,,0.00,VWS V13.01,2013-09-18 16:01:00,
2013-09-18 11:06:00,85.7,68.2,30.13,ENE,68,5.4,5.4,56,0.00,,,0.00,VWS V13.01,2013-09-18 16:06:00,
2013-09-18 11:11:00,86.2,67.6,30.13,NW,326,2.2,2.2,54,0.00,,,0.00,VWS V13.01,2013-09-18 16:11:00,
2013-09-18 11:16:00,86.6,68.5,30.13,East,87,4.0,4.0,55,0.00,,,0.00,VWS V13.01,2013-09-18 16:16:00,
2013-09-18 11:21:00,86.9,67.8,30.13,NNE,26,3.6,5.4,53,0.00,,,0.00,VWS V13.01,2013-09-18 16:21:00,
2013-09-18 11:26:00,87.1,67.4,30.13,ESE,105,0.0,0.0,52,0.00,,,0.00,VWS V13.01,2013-09-18 16:26:00,
2013-09-18 11:31:00,87.7,67.3,30.13,ESE,110,2.2,4.9,51,0.00,,,0.00,VWS V13.01,2013-09-18 16:31:00,
2013-09-18 11:36:00,87.1,67.9,30.13,SSE,150,2.7,4.0,53,0.00,,,0.00,VWS V13.01,2013-09-18 16:36:00,
2013-09-18 11:41:00,86.8,67.6,30.13,ESE,121,7.2,7.2,53,0.00,,,0.00,VWS V13.01,2013-09-18 16:41:00,
2013-09-18 11:46:00,85.7,67.1,30.13,ESE,115,4.0,5.4,54,0.00,,,0.00,VWS V13.01,2013-09-18 16:46:00,
2013-09-18 11:51:00,84.6,67.7,30.13,SE,131,3.1,5.8,57,0.00,,,0.00,VWS V13.01,2013-09-18 16:51:00,
2013-09-18 11:56:00,84.6,67.7,30.13,SSE,157,4.9,6.3,57,0.00,,,0.00,VWS V13.01,2013-09-18 16:56:00,
2013-09-18 12:01:00,84.4,67.5,30.13,East,95,3.1,3.6,57,0.00,,,0.00,VWS V13.01,2013-09-18 17:01:00,
2013-09-18 12:06:00,84.6,67.7,30.13,ENE,72,4.0,6.3,57,0.00,,,0.00,VWS V13.01,2013-09-18 17:06:00,
2013-09-18 12:11:00,84.8,67.9,30.13,SSE,161,3.1,4.0,57,0.00,,,0.00,VWS V13.01,2013-09-18 17:11:00,
2013-09-18 12:16:00,85.1,68.2,30.13,SSE,165,5.4,6.3,57,0.00,,,0.00,VWS V13.01,2013-09-18 17:16:00,
2013-09-18 12:21:00,85.1,67.7,30.13,ESE,122,5.4,6.3,56,0.00,,,0.00,VWS V13.01,2013-09-18 17:21:00,
2013-09-18 12:26:00,84.8,67.9,30.13,SE,132,5.4,5.4,57,0.00,,,0.00,VWS V13.01,2013-09-18 17:26:00,
2013-09-18 12:31:00,85.0,68.0,30.13,NE,47,4.0,4.0,57,0.00,,,0.00,VWS V13.01,2013-09-18 17:31:00,
2013-09-18 12:36:00,85.3,68.4,30.13,ENE,75,5.8,5.8,57,0.00,,,0.00,VWS V13.01,2013-09-18 17:36:00,
2013-09-18 12:41:00,85.3,67.9,30.13,ENE,60,2.2,2.7,56,0.00,,,0.00,VWS V13.01,2013-09-18 17:41:00,
2013-09-18 12:46:00,85.7,68.2,30.13,ESE,117,0.0,2.7,56,0.00,,,0.00,VWS V13.01,2013-09-18 17:46:00,
2013-09-18 12:51:00,86.2,68.7,30.13,SSW,210,3.6,3.6,56,0.00,,,0.00,VWS V13.01,2013-09-18 17:51:00,
2013-09-18 12:57:00,86.0,68.5,30.13,SSE,147,2.7,3.6,56,0.00,,,0.00,VWS V13.01,2013-09-18 17:57:00,
2013-09-18 13:02:00,86.6,68.0,30.13,North,4,2.7,3.6,54,0.00,,,0.00,VWS V13.01,2013-09-18 18:02:00,
2013-09-18 13:06:00,86.9,68.3,30.13,WSW,242,3.6,4.0,54,0.00,,,0.00,VWS V13.01,2013-09-18 18:06:00,
2013-09-18 13:11:00,86.6,68.0,30.13,WSW,247,3.6,5.4,54,0.00,,,0.00,VWS V13.01,2013-09-18 18:11:00,
2013-09-18 13:16:00,86.2,67.6,30.13,SW,230,3.6,3.6,54,0.00,,,0.00,VWS V13.01,2013-09-18 18:16:00,
2013-09-18 13:21:00,86.6,68.0,30.13,WSW,237,2.7,4.0,54,0.00,,,0.00,VWS V13.01,2013-09-18 18:21:00,
2013-09-18 13:26:00,86.8,68.1,30.13,South,185,0.0,3.1,54,0.00,,,0.00,VWS V13.01,2013-09-18 18:26:00,
2013-09-18 13:32:00,87.3,68.1,30.10,NNW,327,2.7,2.7,53,0.00,,,0.00,VWS V13.01,2013-09-18 18:32:00,
2013-09-18 13:36:00,87.7,67.9,30.10,West,260,2.2,3.1,52,0.00,,,0.00,VWS V13.01,2013-09-18 18:36:00,
2013-09-18 13:42:00,87.5,67.1,30.10,WSW,251,2.7,2.7,51,0.00,,,0.00,VWS V13.01,2013-09-18 18:42:00,
2013-09-18 13:47:00,87.7,67.9,30.10,WSW,258,3.1,3.1,52,0.00,,,0.00,VWS V13.01,2013-09-18 18:47:00,
2013-09-18 13:52:00,87.7,67.9,30.10,East,90,3.1,4.0,52,0.00,,,0.00,VWS V13.01,2013-09-18 18:52:00,
2013-09-18 13:57:00,88.4,68.5,30.10,ENE,64,3.1,5.4,52,0.00,,,0.00,VWS V13.01,2013-09-18 18:57:00,
2013-09-18 14:02:00,89.1,68.6,30.10,East,95,4.0,4.0,51,0.00,,,0.00,VWS V13.01,2013-09-18 19:02:00,
2013-09-18 14:07:00,88.9,68.5,30.10,South,175,4.0,5.4,51,0.00,,,0.00,VWS V13.01,2013-09-18 19:07:00,
2013-09-18 14:12:00,88.9,68.5,30.10,WSW,239,5.4,5.4,51,0.00,,,0.00,VWS V13.01,2013-09-18 19:12:00,
2013-09-18 14:17:00,88.4,68.0,30.10,WSW,247,0.0,0.0,51,0.00,,,0.00,VWS V13.01,2013-09-18 19:17:00,
2013-09-18 14:22:00,88.0,67.6,30.10,WSW,243,2.7,2.7,51,0.00,,,0.00,VWS V13.01,2013-09-18 19:22:00,
2013-09-18 14:27:00,88.2,68.4,30.10,South,170,3.6,4.0,52,0.00,,,0.00,VWS V13.01,2013-09-18 19:27:00,
2013-09-18 14:32:00,88.2,67.8,30.10,East,92,2.7,4.0,51,0.00,,,0.00,VWS V13.01,2013-09-18 19:32:00,
2013-09-18 14:37:00,88.2,68.4,30.10,North,355,2.2,3.1,52,0.00,,,0.00,VWS V13.01,2013-09-18 19:37:00,
2013-09-18 14:42:00,88.4,68.5,30.10,West,279,0.0,3.1,52,0.00,,,0.00,VWS V13.01,2013-09-18 19:42:00,
2013-09-18 14:47:00,89.1,69.2,30.07,WNW,293,2.2,2.2,52,0.00,,,0.00,VWS V13.01,2013-09-18 19:47:00,
2013-09-18 14:52:00,90.4,69.8,30.07,SW,234,2.7,3.6,51,0.00,,,0.00,VWS V13.01,2013-09-18 19:52:00,
2013-09-18 14:57:00,90.4,69.2,30.07,ESE,118,3.1,3.1,50,0.00,,,0.00,VWS V13.01,2013-09-18 19:57:00,
2013-09-18 15:02:00,90.9,69.1,30.07,NNE,21,4.0,4.0,49,0.00,,,0.00,VWS V13.01,2013-09-18 20:02:00,
2013-09-18 15:07:00,91.1,69.3,30.07,ESE,113,4.9,5.8,49,0.00,,,0.00,VWS V13.01,2013-09-18 20:07:00,
2013-09-18 15:12:00,90.9,69.1,30.07,SSE,147,2.7,2.7,49,0.00,,,0.00,VWS V13.01,2013-09-18 20:12:00,
2013-09-18 15:17:00,91.1,69.3,30.07,SSW,204,3.6,3.6,49,0.00,,,0.00,VWS V13.01,2013-09-18 20:17:00,
2013-09-18 15:23:00,91.3,69.4,30.07,South,169,3.1,4.0,49,0.00,,,0.00,VWS V13.01,2013-09-18 20:23:00,
2013-09-18 15:28:00,91.3,69.4,30.07,ESE,113,2.7,5.4,49,0.00,,,0.00,VWS V13.01,2013-09-18 20:28:00,
2013-09-18 15:33:00,91.6,69.2,30.04,NNE,29,2.7,2.7,48,0.00,,,0.00,VWS V13.01,2013-09-18 20:33:00,
2013-09-18 15:38:00,92.0,69.5,30.04,ESE,123,2.7,6.3,48,0.00,,,0.00,VWS V13.01,2013-09-18 20:38:00,
2013-09-18 15:43:00,91.6,69.2,30.04,SSE,147,3.6,3.6,48,0.00,,,0.00,VWS V13.01,2013-09-18 20:43:00,
2013-09-18 15:48:00,91.3,68.8,30.04,NNE,19,3.6,3.6,48,0.00,,,0.00,VWS V13.01,2013-09-18 20:48:00,
2013-09-18 15:53:00,91.8,69.3,30.04,South,170,4.0,4.0,48,0.00,,,0.00,VWS V13.01,2013-09-18 20:53:00,
2013-09-18 15:58:00,91.6,69.2,30.04,West,267,2.7,2.7,48,0.00,,,0.00,VWS V13.01,2013-09-18 20:58:00,
2013-09-18 16:03:00,92.0,69.5,30.04,SSW,202,3.6,3.6,48,0.00,,,0.00,VWS V13.01,2013-09-18 21:03:00,
2013-09-18 16:08:00,92.3,69.8,30.04,SSE,150,2.7,3.1,48,0.00,,,0.00,VWS V13.01,2013-09-18 21:08:00,
2013-09-18 16:13:00,92.3,69.8,30.04,SSE,147,0.0,0.0,48,0.00,,,0.00,VWS V13.01,2013-09-18 21:13:00,
2013-09-18 16:18:00,92.5,70.0,30.04,ESE,103,2.7,2.7,48,0.00,,,0.00,VWS V13.01,2013-09-18 21:18:00,
2013-09-18 16:23:00,91.8,69.3,30.04,ESE,106,3.1,4.0,48,0.00,,,0.00,VWS V13.01,2013-09-18 21:23:00,
2013-09-18 16:28:00,90.7,68.9,30.04,South,188,2.7,2.7,49,0.00,,,0.00,VWS V13.01,2013-09-18 21:28:00,
2013-09-18 16:33:00,90.0,68.3,30.04,ESE,102,4.0,5.8,49,0.00,,,0.00,VWS V13.01,2013-09-18 21:33:00,
2013-09-18 16:38:00,89.3,68.8,30.04,SE,143,4.9,5.4,51,0.00,,,0.00,VWS V13.01,2013-09-18 21:38:00,
2013-09-18 16:43:00,88.7,68.3,30.04,SSE,168,2.7,4.0,51,0.00,,,0.00,VWS V13.01,2013-09-18 21:43:00,
2013-09-18 16:48:00,88.7,68.3,30.04,SSE,154,2.2,2.2,51,0.00,,,0.00,VWS V13.01,2013-09-18 21:48:00,
2013-09-18 16:53:00,88.9,68.5,30.04,ENE,64,0.0,0.0,51,0.00,,,0.00,VWS V13.01,2013-09-18 21:53:00,
2013-09-18 16:58:00,89.1,69.2,30.04,East,84,2.7,3.1,52,0.00,,,0.00,VWS V13.01,2013-09-18 21:58:00,
2013-09-18 17:03:00,89.1,68.1,30.04,ESE,117,3.6,3.6,50,0.00,,,0.00,VWS V13.01,2013-09-18 22:03:00,
2013-09-18 17:08:00,89.3,68.8,30.04,ENE,72,5.8,6.3,51,0.00,,,0.00,VWS V13.01,2013-09-18 22:08:00,
2013-09-18 17:13:00,88.7,69.4,30.04,SSE,147,5.8,5.8,53,0.00,,,0.00,VWS V13.01,2013-09-18 22:13:00,
2013-09-18 17:18:00,88.2,68.9,30.04,SE,143,2.7,6.3,53,0.00,,,0.00,VWS V13.01,2013-09-18 22:18:00,
2013-09-18 17:24:00,87.5,68.3,30.04,South,174,2.2,2.2,53,0.00,,,0.00,VWS V13.01,2013-09-18 22:24:00,
2013-09-18 17:29:00,87.1,68.5,30.04,SSE,164,4.0,4.0,54,0.00,,,0.00,VWS V13.01,2013-09-18 22:29:00,
2013-09-18 17:34:00,86.6,68.5,30.04,SE,143,3.6,3.6,55,0.00,,,0.00,VWS V13.01,2013-09-18 22:34:00,
2013-09-18 17:39:00,86.6,68.5,30.04,ESE,121,3.1,4.0,55,0.00,,,0.00,VWS V13.01,2013-09-18 22:39:00,
2013-09-18 17:44:00,86.6,68.5,30.04,SE,124,2.2,2.7,55,0.00,,,0.00,VWS V13.01,2013-09-18 22:44:00,
2013-09-18 17:49:00,86.6,68.5,30.04,SE,129,2.2,2.7,55,0.00,,,0.00,VWS V13.01,2013-09-18 22:49:00,
2013-09-18 17:54:00,86.8,68.7,30.04,SE,134,2.2,2.2,55,0.00,,,0.00,VWS V13.01,2013-09-18 22:54:00,
2013-09-18 17:59:00,86.8,69.2,30.04,SSE,155,2.7,3.1,56,0.00,,,0.00,VWS V13.01,2013-09-18 22:59:00,
2013-09-18 18:04:00,86.6,69.0,30.04,South,175,3.1,3.1,56,0.00,,,0.00,VWS V13.01,2013-09-18 23:04:00,
2013-09-18 18:09:00,86.2,68.7,30.04,SE,143,3.1,3.1,56,0.00,,,0.00,VWS V13.01,2013-09-18 23:09:00,
2013-09-18 18:14:00,86.0,68.5,30.04,SE,125,3.1,4.9,56,0.00,,,0.00,VWS V13.01,2013-09-18 23:14:00,
2013-09-18 18:19:00,85.9,68.4,30.04,SE,131,2.7,3.1,56,0.00,,,0.00,VWS V13.01,2013-09-18 23:19:00,
2013-09-18 18:24:00,85.9,68.4,30.04,SSE,168,3.6,3.6,56,0.00,,,0.00,VWS V13.01,2013-09-18 23:24:00,
2013-09-18 18:29:00,86.0,68.5,30.07,South,181,4.0,5.4,56,0.00,,,0.00,VWS V13.01,2013-09-18 23:29:00,
2013-09-18 18:34:00,85.9,68.4,30.07,SSE,168,4.0,4.9,56,0.00,,,0.00,VWS V13.01,2013-09-18 23:34:00,
2013-09-18 18:39:00,85.9,68.4,30.07,South,174,5.8,6.3,56,0.00,,,0.00,VWS V13.01,2013-09-18 23:39:00,
2013-09-18 18:44:00,85.7,68.2,30.07,SSE,147,3.1,3.1,56,0.00,,,0.00,VWS V13.01,2013-09-18 23:44:00,
2013-09-18 18:49:00,85.5,68.0,30.07,SE,130,3.6,3.6,56,0.00,,,0.00,VWS V13.01,2013-09-18 23:49:00,
2013-09-18 18:54:00,85.3,68.4,30.07,SSE,165,3.6,3.6,57,0.00,,,0.00,VWS V13.01,2013-09-18 23:54:00,
2013-09-18 18:59:00,85.1,68.2,30.04,South,179,3.1,3.1,57,0.00,,,0.00,VWS V13.01,2013-09-18 23:59:00,
2013-09-18 19:04:00,84.8,67.9,30.04,SE,143,2.2,3.1,57,0.00,,,0.00,VWS V13.01,2013-09-19 00:04:00,
2013-09-18 19:10:00,84.4,67.5,30.04,ESE,121,2.2,3.1,57,0.00,,,0.00,VWS V13.01,2013-09-19 00:10:00,
2013-09-18 19:15:00,84.1,67.7,30.07,SE,138,0.0,2.2,58,0.00,,,0.00,VWS V13.01,2013-09-19 00:15:00,
2013-09-18 19:20:00,83.7,67.4,30.07,SE,138,0.0,0.0,58,0.00,,,0.00,VWS V13.01,2013-09-19 00:20:00,
2013-09-18 19:25:00,83.5,67.7,30.07,SE,131,0.0,0.0,59,0.00,,,0.00,VWS V13.01,2013-09-19 00:25:00,
2013-09-18 19:30:00,83.2,67.4,30.04,East,95,0.0,0.0,59,0.00,,,0.00,VWS V13.01,2013-09-19 00:30:00,
2013-09-18 19:35:00,82.8,67.0,30.04,East,82,0.0,2.2,59,0.00,,,0.00,VWS V13.01,2013-09-19 00:35:00,
2013-09-18 19:40:00,82.4,66.7,30.04,East,88,0.0,2.2,59,0.00,,,0.00,VWS V13.01,2013-09-19 00:40:00,
2013-09-18 19:45:00,82.3,66.5,30.07,East,96,0.0,0.0,59,0.00,,,0.00,VWS V13.01,2013-09-19 00:45:00,
2013-09-18 19:50:00,81.9,66.2,30.07,ENE,70,2.2,3.1,59,0.00,,,0.00,VWS V13.01,2013-09-19 00:50:00,
2013-09-18 19:55:00,81.7,66.0,30.07,NE,47,3.6,3.6,59,0.00,,,0.00,VWS V13.01,2013-09-19 00:55:00,
2013-09-18 20:00:00,81.4,65.2,30.07,ENE,76,4.0,4.0,58,0.00,,,0.00,VWS V13.01,2013-09-19 01:00:00,
2013-09-18 20:05:00,81.2,65.0,30.07,East,93,3.1,3.1,58,0.00,,,0.00,VWS V13.01,2013-09-19 01:05:00,
2013-09-18 20:10:00,81.0,64.8,30.07,East,80,2.7,2.7,58,0.00,,,0.00,VWS V13.01,2013-09-19 01:10:00,
2013-09-18 20:15:00,80.6,65.0,30.07,ENE,62,3.1,3.1,59,0.00,,,0.00,VWS V13.01,2013-09-19 01:15:00,
2013-09-18 20:20:00,80.3,64.7,30.07,ENE,62,3.6,3.6,59,0.00,,,0.00,VWS V13.01,2013-09-19 01:20:00,
2013-09-18 20:25:00,80.1,64.5,30.07,ENE,73,0.0,0.0,59,0.00,,,0.00,VWS V13.01,2013-09-19 01:25:00,
2013-09-18 20:30:00,80.1,64.5,30.07,NE,47,0.0,0.0,59,0.00,,,0.00,VWS V13.01,2013-09-19 01:30:00,
2013-09-18 20:35:00,79.9,64.3,30.07,NE,48,0.0,0.0,59,0.00,,,0.00,VWS V13.01,2013-09-19 01:35:00,
2013-09-18 20:40:00,79.7,64.6,30.07,NE,47,0.0,0.0,60,0.00,,,0.00,VWS V13.01,2013-09-19 01:40:00,
2013-09-18 20:45:00,79.4,64.3,30.07,NE,46,0.0,0.0,60,0.00,,,0.00,VWS V13.01,2013-09-19 01:45:00,
2013-09-18 20:50:00,79.2,64.6,30.07,NE,45,0.0,0.0,61,0.00,,,0.00,VWS V13.01,2013-09-19 01:50:00,
2013-09-18 20:55:00,78.8,64.3,30.07,NE,45,0.0,0.0,61,0.00,,,0.00,VWS V13.01,2013-09-19 01:55:00,
2013-09-18 21:01:00,78.7,64.1,30.07,NE,45,0.0,0.0,61,0.00,,,0.00,VWS V13.01,2013-09-19 02:01:00,
2013-09-18 21:06:00,78.3,63.8,30.07,NE,45,0.0,0.0,61,0.00,,,0.00,VWS V13.01,2013-09-19 02:06:00,
2013-09-18 21:11:00,77.9,63.9,30.07,NE,45,0.0,0.0,62,0.00,,,0.00,VWS V13.01,2013-09-19 02:11:00,
2013-09-18 21:16:00,77.6,64.0,30.07,NE,45,0.0,0.0,63,0.00,,,0.00,VWS V13.01,2013-09-19 02:16:00,
2013-09-18 21:21:00,77.4,64.3,30.07,NE,45,0.0,0.0,64,0.00,,,0.00,VWS V13.01,2013-09-19 02:21:00,
2013-09-18 21:26:00,77.0,64.4,30.07,NNE,28,0.0,0.0,65,0.00,,,0.00,VWS V13.01,2013-09-19 02:26:00,
2013-09-18 21:31:00,76.7,64.0,30.07,NNE,28,0.0,0.0,65,0.00,,,0.00,VWS V13.01,2013-09-19 02:31:00,
2013-09-18 21:36:00,76.7,64.0,30.07,NNE,28,0.0,0.0,65,0.00,,,0.00,VWS V13.01,2013-09-19 02:36:00,
2013-09-18 21:41:00,76.3,64.1,30.07,NNE,29,0.0,0.0,66,0.00,,,0.00,VWS V13.01,2013-09-19 02:41:00,
2013-09-18 21:46:00,75.8,64.1,30.10,NNE,29,0.0,0.0,67,0.00,,,0.00,VWS V13.01,2013-09-19 02:46:00,
2013-09-18 21:51:00,75.4,64.6,30.10,NNE,30,0.0,0.0,69,0.00,,,0.00,VWS V13.01,2013-09-19 02:51:00,
2013-09-18 21:56:00,75.2,64.4,30.10,NNE,30,0.0,0.0,69,0.00,,,0.00,VWS V13.01,2013-09-19 02:56:00,
2013-09-18 22:02:00,75.1,64.2,30.07,NNE,30,0.0,0.0,69,0.00,,,0.00,VWS V13.01,2013-09-19 03:02:00,
2013-09-18 22:07:00,74.9,64.0,30.07,NNE,30,0.0,0.0,69,0.00,,,0.00,VWS V13.01,2013-09-19 03:07:00,
2013-09-18 22:12:00,74.9,64.0,30.07,NNE,30,0.0,0.0,69,0.00,,,0.00,VWS V13.01,2013-09-19 03:12:00,
2013-09-18 22:17:00,74.9,64.0,30.07,NNE,30,0.0,0.0,69,0.00,,,0.00,VWS V13.01,2013-09-19 03:17:00,
2013-09-18 22:22:00,74.9,64.0,30.07,NNE,30,0.0,0.0,69,0.00,,,0.00,VWS V13.01,2013-09-19 03:22:00,
2013-09-18 22:27:00,74.9,64.0,30.07,NNE,30,0.0,0.0,69,0.00,,,0.00,VWS V13.01,2013-09-19 03:27:00,
2013-09-18 22:32:00,74.7,64.3,30.07,NNE,30,0.0,0.0,70,0.00,,,0.00,VWS V13.01,2013-09-19 03:32:00,
2013-09-18 22:37:00,74.3,64.3,30.07,NNE,30,0.0,0.0,71,0.00,,,0.00,VWS V13.01,2013-09-19 03:37:00,
2013-09-18 22:42:00,74.2,64.2,30.07,NNE,30,0.0,0.0,71,0.00,,,0.00,VWS V13.01,2013-09-19 03:42:00,
2013-09-18 22:47:00,74.0,64.0,30.07,NNE,30,0.0,0.0,71,0.00,,,0.00,VWS V13.01,2013-09-19 03:47:00,
2013-09-18 22:52:00,73.6,64.0,30.07,NNE,30,0.0,0.0,72,0.00,,,0.00,VWS V13.01,2013-09-19 03:52:00,
2013-09-18 22:57:00,73.3,64.1,30.07,NNE,30,0.0,0.0,73,0.00,,,0.00,VWS V13.01,2013-09-19 03:57:00,
2013-09-18 23:01:00,73.1,63.9,30.07,NNE,30,0.0,0.0,73,0.00,,,0.00,VWS V13.01,2013-09-19 04:01:00,
2013-09-18 23:06:00,72.7,64.0,30.07,NNE,30,0.0,0.0,74,0.00,,,0.00,VWS V13.01,2013-09-19 04:06:00,
2013-09-18 23:08:00,72.7,64.0,30.07,NNE,30,0.0,0.0,74,0.00,,,0.00,VWS V13.01,2013-09-19 04:08:00,
2013-09-18 23:13:00,72.5,64.2,30.07,NNE,30,0.0,0.0,75,0.00,,,0.00,VWS V13.01,2013-09-19 04:13:00,
2013-09-18 23:18:00,72.4,64.0,30.07,NNE,30,0.0,0.0,75,0.00,,,0.00,VWS V13.01,2013-09-19 04:18:00,
2013-09-18 23:23:00,72.4,64.0,30.07,NNE,30,0.0,0.0,75,0.00,,,0.00,VWS V13.01,2013-09-19 04:23:00,
2013-09-18 23:28:00,72.5,64.2,30.07,NNE,30,0.0,0.0,75,0.00,,,0.00,VWS V13.01,2013-09-19 04:28:00,
2013-09-18 23:33:00,72.7,64.3,30.07,NNE,30,0.0,0.0,75,0.00,,,0.00,VWS V13.01,2013-09-19 04:33:00,
2013-09-18 23:38:00,72.7,64.3,30.07,NNE,30,0.0,0.0,75,0.00,,,0.00,VWS V13.01,2013-09-19 04:38:00,
2013-09-18 23:43:00,72.9,64.1,30.07,NNE,30,0.0,0.0,74,0.00,,,0.00,VWS V13.01,2013-09-19 04:43:00,
2013-09-18 23:48:00,72.9,64.1,30.07,NNE,30,0.0,0.0,74,0.00,,,0.00,VWS V13.01,2013-09-19 04:48:00,
2013-09-18 23:53:00,72.7,64.0,30.07,NNE,30,0.0,0.0,74,0.00,,,0.00,VWS V13.01,2013-09-19 04:53:00,
2013-09-18 23:58:00,72.4,64.0,30.07,NNE,30,0.0,0.0,75,0.00,,,0.00,VWS V13.01,2013-09-19 04:58:00,